This is the latest recevied weather packets stored in our database for station/object N7BTW-13. If no packets are shown the sender has not sent any weather packets the latest 10 day(s).
| Time | Temp. | Humidity | Pressure | Rain* | Wind** | Luminosity | Snow |
|---|---|---|---|---|---|---|---|
| 1788054609 | 21.11° C | 51% | - | 0 mm | - | - | - |
| 1788054006 | 21.67° C | 49% | - | 0 mm | - | - | - |
| 1788053407 | 22.22° C | 45% | - | 0 mm | - | - | - |
| 1788052807 | 22.78° C | 44% | - | 0 mm | - | - | - |
| 1788052209 | 23.33° C | 43% | - | 0 mm | - | - | - |
| 1788051607 | 23.89° C | 42% | - | 0 mm | - | - | - |
| 1788051010 | 23.89° C | 42% | - | 0 mm | - | - | - |
| 1788050413 | 23.89° C | 41% | - | 0 mm | - | - | - |
| 1788049807 | 24.44° C | 41% | - | 0 mm | - | - | - |
| 1788049208 | 25° C | 41% | - | 0 mm | - | - | - |
| 1788048605 | 25.56° C | 40% | - | 0 mm | - | - | - |
| 1788048010 | 24.44° C | 40% | - | 0 mm | - | - | - |
| 1788047408 | 25° C | 39% | - | 0 mm | - | - | - |
| 1788046807 | 25° C | 41% | - | 0 mm | - | - | - |
| 1788046208 | 25.56° C | 41% | - | 0 mm | - | - | - |
| 1788045605 | 25.56° C | 41% | - | 0 mm | - | - | - |
| 1788045009 | 23.89° C | 44% | - | 0 mm | - | - | - |
| 1788044410 | 23.89° C | 43% | - | 0 mm | - | - | - |
| 1788043810 | 26.67° C | 37% | - | 0 mm | - | - | - |
| 1788043207 | 26.67° C | 39% | - | 0 mm | - | - | - |
| 1788042609 | 26.67° C | 39% | - | 0 mm | - | - | - |
| 1788042008 | 26.11° C | 38% | - | 0 mm | - | - | - |
| 1788041409 | 23.89° C | 43% | - | 0 mm | - | - | - |
| 1788040808 | 22.78° C | 46% | - | 0 mm | - | - | - |
| 1788040207 | 22.22° C | 48% | - | 0 mm | - | - | - |
* Rain latest hour (hover to see other rain measurements)
** Current wind speed in m/s (hover to see current wind gust speed)